Time;durP1;ratioP1;P1;durP2;ratioP2;P2;SDS_P1;SDS_P2;PMS_P1;PMS_P2;Temp;Humidity;BMP_temperature;BMP_pressure;BME280_temperature;BME280_humidity;BME280_pressure;Samples;Min_cycle;Max_cycle;Signal;HPM_P1;HPM_P2
2022/07/08 00:02:01;;;;;;;;;4.00;2.75;;;;;23.41;39.07;102585.44;4918160;28;45403;-45
2022/07/08 00:04:26;;;;;;;;;2.25;2.25;;;;;23.42;39.02;102596.88;4918053;28;45375;-47
2022/07/08 00:06:51;;;;;;;;;3.50;3.00;;;;;23.40;39.03;102594.28;4918685;28;45577;-50
2022/07/08 00:09:17;;;;;;;;;3.25;3.00;;;;;23.39;38.72;102589.03;4917985;28;46001;-47
2022/07/08 00:11:44;;;;;;;;;2.00;2.00;;;;;23.39;38.89;102602.28;4917827;28;45709;-45
2022/07/08 00:14:10;;;;;;;;;5.25;2.00;;;;;23.39;38.81;102587.28;4918240;28;45239;-47
2022/07/08 00:16:43;;;;;;;;;3.25;3.00;;;;;23.39;38.81;102586.41;4918071;28;45577;-46
2022/07/08 00:19:11;;;;;;;;;2.00;2.00;;;;;23.38;38.85;102593.50;4917906;28;46067;-49
2022/07/08 00:21:37;;;;;;;;;1.50;1.50;;;;;23.37;38.90;102599.69;4917573;28;45214;-49
2022/07/08 00:24:02;;;;;;;;;4.50;3.00;;;;;23.36;39.21;102599.78;4900991;28;45502;-50
2022/07/08 00:26:28;;;;;;;;;2.00;2.00;;;;;23.36;39.03;102595.31;4917852;28;45303;-47
2022/07/08 00:28:53;;;;;;;;;5.75;3.00;;;;;23.34;39.22;102597.16;4917947;28;46057;-46
2022/07/08 00:31:18;;;;;;;;;2.75;2.75;;;;;23.35;39.16;102598.03;4917741;28;45422;-50
2022/07/08 00:33:44;;;;;;;;;3.25;2.00;;;;;23.35;38.80;102580.38;4917611;28;45417;-50
2022/07/08 00:36:09;;;;;;;;;3.50;2.00;;;;;23.34;39.08;102581.28;4921189;28;45538;-52
2022/07/08 00:38:34;;;;;;;;;4.50;2.50;;;;;23.34;38.90;102586.59;4920865;28;45387;-53
2022/07/08 00:41:00;;;;;;;;;2.00;2.00;;;;;23.34;38.93;102583.94;4903366;28;55888;-50
2022/07/08 00:43:32;;;;;;;;;2.00;2.00;;;;;23.33;38.98;102584.84;4920976;28;45280;-53
2022/07/08 00:45:58;;;;;;;;;3.75;2.00;;;;;23.33;39.01;102578.72;4921369;28;45389;-54
2022/07/08 00:48:23;;;;;;;;;3.00;2.25;;;;;23.31;38.91;102579.63;4921163;28;45442;-51
2022/07/08 00:50:48;;;;;;;;;2.50;2.50;;;;;23.32;38.91;102577.84;4920673;28;45420;-52
2022/07/08 00:53:15;;;;;;;;;6.00;2.50;;;;;23.32;38.64;102588.41;4920955;28;45353;-49
2022/07/08 00:55:40;;;;;;;;;2.75;2.00;;;;;23.31;39.05;102589.38;4920837;28;45414;-49
2022/07/08 00:58:05;;;;;;;;;2.00;2.00;;;;;23.31;38.90;102587.56;4920611;28;45985;-46
2022/07/08 01:00:31;;;;;;;;;5.25;3.00;;;;;23.30;39.21;102592.94;4920463;28;45323;-48
2022/07/08 01:02:56;;;;;;;;;2.75;2.00;;;;;23.30;39.00;102600.88;4920790;28;45356;-48
2022/07/08 01:05:21;;;;;;;;;1.50;1.00;;;;;23.28;38.95;102600.91;4921209;28;45260;-51
2022/07/08 01:07:48;;;;;;;;;3.00;3.00;;;;;23.29;38.79;102607.94;4920229;28;45447;-44
2022/07/08 01:10:13;;;;;;;;;6.00;3.00;;;;;23.27;38.63;102603.63;4920670;28;45197;-46
2022/07/08 01:12:38;;;;;;;;;2.50;2.00;;;;;23.27;38.90;102609.78;4920472;28;45238;-47
2022/07/08 01:15:05;;;;;;;;;2.00;2.00;;;;;23.26;38.66;102608.03;4920876;28;45238;-46
2022/07/08 01:17:40;;;;;;;;;5.50;3.00;;;;;23.25;38.88;102605.47;4920131;28;45411;-46
2022/07/08 01:20:06;;;;;;;;;3.25;2.00;;;;;23.23;38.52;102609.94;4920374;28;45285;-46
2022/07/08 01:22:31;;;;;;;;;3.00;2.00;;;;;23.24;38.62;102624.91;4920321;28;45395;-50
2022/07/08 01:24:56;;;;;;;;;2.00;2.00;;;;;23.23;38.63;102634.63;4920352;28;45250;-54
2022/07/08 01:27:22;;;;;;;;;2.00;2.00;;;;;23.22;38.70;102634.69;4920457;28;45471;-49
2022/07/08 01:29:47;;;;;;;;;3.25;2.00;;;;;23.21;38.73;102630.31;4920087;28;45387;-52
2022/07/08 01:32:12;;;;;;;;;3.25;2.00;;;;;23.22;38.91;102634.69;4920351;28;45463;-48
2022/07/08 01:34:38;;;;;;;;;2.00;2.00;;;;;23.21;38.63;102635.59;4920240;28;45574;-52
2022/07/08 01:37:03;;;;;;;;;2.00;2.00;;;;;23.20;38.48;102632.09;4902983;28;48036;-52
2022/07/08 01:39:28;;;;;;;;;2.50;1.00;;;;;23.20;38.64;102639.19;4919981;28;45375;-47
2022/07/08 01:41:54;;;;;;;;;4.25;1.75;;;;;23.20;38.68;102633.91;4902979;28;50822;-45
2022/07/08 01:44:19;;;;;;;;;4.00;2.25;;;;;23.17;38.45;102633.06;4920561;28;45628;-45
2022/07/08 01:46:45;;;;;;;;;2.00;2.00;;;;;23.16;38.65;102633.97;4918401;28;47000;-47
2022/07/08 01:49:14;;;;;;;;;2.00;2.00;;;;;23.15;38.61;102637.53;4920112;28;45449;-46
2022/07/08 01:51:39;;;;;;;;;3.00;2.00;;;;;23.14;38.44;102638.47;4920166;28;45299;-49
2022/07/08 01:54:05;;;;;;;;;3.50;2.25;;;;;23.14;38.73;102632.31;4920289;28;45205;-46
2022/07/08 01:56:30;;;;;;;;;3.00;1.00;;;;;23.13;38.80;102638.53;4919180;28;57529;-46
2022/07/08 01:58:55;;;;;;;;;4.75;2.50;;;;;23.12;39.04;102632.34;4919653;28;49778;-47
2022/07/08 02:01:20;;;;;;;;;4.00;1.75;;;;;23.12;38.80;102631.50;4919745;28;50438;-46
2022/07/08 02:03:46;;;;;;;;;2.00;2.00;;;;;23.12;38.83;102632.34;4919491;28;48330;-45
2022/07/08 02:06:11;;;;;;;;;1.75;1.75;;;;;23.11;38.83;102630.63;4918943;28;45289;-46
2022/07/08 02:08:36;;;;;;;;;2.50;2.50;;;;;23.11;38.67;102629.78;4919458;28;46016;-45
2022/07/08 02:13:46;;;;;;;;;2.50;2.00;;;;;23.08;38.64;102630.78;4919703;28;45401;-44
2022/07/08 02:16:11;;;;;;;;;5.50;3.00;;;;;23.08;38.72;102630.78;4919538;28;46020;-45
2022/07/08 02:18:36;;;;;;;;;1.75;1.75;;;;;23.08;38.82;102630.78;4919424;28;45714;-48
2022/07/08 02:21:02;;;;;;;;;4.25;2.00;;;;;23.08;38.44;102640.47;4919635;28;45264;-49
2022/07/08 02:23:27;;;;;;;;;2.75;2.75;;;;;23.07;38.70;102634.34;4919581;28;45283;-44
2022/07/08 02:25:52;;;;;;;;;3.00;2.00;;;;;23.08;38.76;102641.34;4919501;28;52389;-45
2022/07/08 02:28:17;;;;;;;;;3.25;3.00;;;;;23.08;38.70;102632.53;4919180;28;45283;-44
2022/07/08 02:30:43;;;;;;;;;3.00;3.00;;;;;23.07;39.03;102631.69;4919223;28;45357;-44
2022/07/08 02:33:08;;;;;;;;;4.25;3.50;;;;;23.07;38.66;102629.03;4919680;28;45307;-46
2022/07/08 02:35:33;;;;;;;;;4.00;1.00;;;;;23.06;39.16;102627.31;4919099;28;45848;-50
2022/07/08 02:37:59;;;;;;;;;2.00;2.00;;;;;23.07;38.96;102628.16;4918537;28;45400;-48
2022/07/08 02:40:24;;;;;;;;;2.00;2.00;;;;;23.06;38.58;102622.03;4919243;28;46459;-47
2022/07/08 02:42:50;;;;;;;;;1.25;1.25;;;;;23.05;38.83;102615.00;4919908;28;45411;-48
2022/07/08 02:45:15;;;;;;;;;2.00;2.00;;;;;23.04;38.46;102615.94;4918980;28;46421;-45
2022/07/08 02:47:40;;;;;;;;;2.00;2.00;;;;;23.03;38.92;102622.13;4918860;28;45256;-44
2022/07/08 02:50:06;;;;;;;;;3.33;2.00;;;;;23.03;38.72;102622.13;4918769;28;53579;-49
2022/07/08 02:52:32;;;;;;;;;4.00;2.00;;;;;23.03;38.89;102616.84;4901849;28;45606;-46
2022/07/08 02:54:57;;;;;;;;;3.25;2.25;;;;;23.02;38.65;102617.75;4918981;28;45369;-45
2022/07/08 02:57:22;;;;;;;;;3.00;2.00;;;;;23.03;38.91;102616.00;4919023;28;45270;-48
2022/07/08 02:59:48;;;;;;;;;2.00;2.00;;;;;23.02;38.87;102612.47;4918728;28;45427;-49
2022/07/08 03:02:13;;;;;;;;;2.00;1.00;;;;;23.01;39.20;102613.38;4919185;28;45546;-54
2022/07/08 03:04:38;;;;;;;;;2.25;2.25;;;;;23.01;38.55;102619.56;4918673;28;46042;-50
2022/07/08 03:07:04;;;;;;;;;2.25;2.00;;;;;23.01;38.79;102623.97;4918670;28;50546;-50
2022/07/08 03:09:29;;;;;;;;;2.00;2.00;;;;;23.00;38.92;102622.25;4918946;28;45767;-48
2022/07/08 03:11:55;;;;;;;;;6.50;1.00;;;;;23.00;38.95;102627.53;4919056;28;45451;-49
2022/07/08 03:14:20;;;;;;;;;1.00;1.00;;;;;22.98;38.75;102624.94;4918865;28;45609;-49
2022/07/08 03:16:45;;;;;;;;;1.25;1.25;;;;;22.98;39.03;102635.53;4918485;28;45283;-50
2022/07/08 03:19:12;;;;;;;;;2.75;2.00;;;;;22.99;38.70;102625.81;4901844;28;45420;-48
2022/07/08 03:21:37;;;;;;;;;1.25;1.25;;;;;22.98;38.54;102639.97;4918623;28;45445;-52
2022/07/08 03:24:03;;;;;;;;;2.25;2.25;;;;;22.97;38.71;102633.81;4918522;28;46901;-48
2022/07/08 03:26:28;;;;;;;;;2.25;2.00;;;;;22.97;38.65;102638.25;4901360;28;45450;-49
2022/07/08 03:28:53;;;;;;;;;2.00;2.00;;;;;22.97;38.78;102643.53;4918521;28;46029;-51
2022/07/08 03:31:19;;;;;;;;;1.00;1.00;;;;;22.96;38.97;102642.66;4918802;28;45543;-53
2022/07/08 03:33:44;;;;;;;;;2.00;2.00;;;;;22.97;39.04;102646.19;4918299;28;46422;-54
2022/07/08 03:36:09;;;;;;;;;2.75;2.00;;;;;22.96;38.59;102647.09;4918614;28;45455;-50
2022/07/08 03:38:35;;;;;;;;;2.00;1.00;;;;;22.94;38.64;102652.41;4918317;28;45365;-47
2022/07/08 03:43:48;;;;;;;;;6.00;2.00;;;;;22.95;38.69;102655.94;4918048;28;45345;-45
2022/07/08 03:46:14;;;;;;;;;0.75;0.00;;;;;22.94;38.90;102656.84;4901426;28;45427;-46
2022/07/08 03:48:39;;;;;;;;;4.00;2.75;;;;;22.94;38.61;102659.50;4918321;28;45404;-46
2022/07/08 03:51:05;;;;;;;;;1.25;1.25;;;;;22.93;38.87;102655.13;4918720;28;45221;-45
2022/07/08 03:53:31;;;;;;;;;5.00;3.00;;;;;22.93;38.57;102652.47;4917933;28;46341;-47
2022/07/08 03:55:56;;;;;;;;;2.00;2.00;;;;;22.92;38.65;102653.41;4918113;28;45347;-46
2022/07/08 03:58:22;;;;;;;;;3.00;3.00;;;;;22.92;38.75;102656.03;4918681;28;45344;-46
2022/07/08 04:00:47;;;;;;;;;2.25;2.25;;;;;22.91;38.69;102654.31;4918188;28;45404;-47
2022/07/08 04:03:12;;;;;;;;;1.25;1.25;;;;;22.92;38.63;102674.56;4918134;28;46261;-46
2022/07/08 04:05:38;;;;;;;;;2.00;2.00;;;;;22.91;39.26;102672.81;4917783;28;47608;-45
2022/07/08 04:08:05;;;;;;;;;3.00;2.00;;;;;22.91;38.99;102675.47;4918183;28;45386;-47
2022/07/08 04:10:30;;;;;;;;;1.25;1.25;;;;;22.91;38.88;102670.19;4919067;28;45575;-48
2022/07/08 04:12:55;;;;;;;;;2.75;2.50;;;;;22.90;38.56;102663.16;4921547;28;45608;-52
2022/07/08 04:15:21;;;;;;;;;4.25;3.00;;;;;22.90;39.00;102663.16;4921871;28;45328;-46
2022/07/08 04:17:47;;;;;;;;;2.25;2.25;;;;;22.90;38.97;102663.16;4921326;28;45354;-46
2022/07/08 04:20:12;;;;;;;;;2.75;2.50;;;;;22.89;38.85;102662.31;4921599;28;45579;-45
2022/07/08 04:22:37;;;;;;;;;3.00;2.00;;;;;22.90;38.78;102663.16;4920889;28;46372;-46
2022/07/08 04:25:03;;;;;;;;;2.00;2.00;;;;;22.90;38.75;102668.44;4921259;28;45307;-47
2022/07/08 04:27:28;;;;;;;;;1.00;1.00;;;;;22.89;38.74;102672.00;4920945;28;45530;-51
2022/07/08 04:29:54;;;;;;;;;2.00;2.00;;;;;22.88;38.80;102668.53;4921858;28;45370;-49
2022/07/08 04:32:19;;;;;;;;;3.00;2.75;;;;;22.87;38.60;102664.16;4921029;28;51342;-52
2022/07/08 04:34:45;;;;;;;;;3.75;2.00;;;;;22.89;38.69;102669.38;4920801;28;47650;-49
2022/07/08 04:37:11;;;;;;;;;2.00;2.00;;;;;22.88;38.61;102670.28;4921241;28;45347;-47
2022/07/08 04:39:36;;;;;;;;;3.00;2.00;;;;;22.87;38.51;102663.31;4920999;28;45454;-51
2022/07/08 04:42:01;;;;;;;;;1.00;0.00;;;;;22.87;38.86;102673.88;4921039;28;45428;-46
2022/07/08 04:44:27;;;;;;;;;3.75;2.00;;;;;22.85;38.69;102669.50;4920697;28;45305;-46
2022/07/08 04:46:52;;;;;;;;;2.00;2.00;;;;;22.85;38.60;102669.50;4921382;28;45462;-44
2022/07/08 04:49:17;;;;;;;;;4.67;2.33;;;;;22.85;38.64;102674.78;4920918;28;45426;-46
2022/07/08 04:51:43;;;;;;;;;2.75;2.25;;;;;22.86;38.63;102675.63;4920587;28;47110;-45
2022/07/08 04:54:08;;;;;;;;;3.00;3.00;;;;;22.86;38.51;102678.28;4920804;28;45334;-47
2022/07/08 04:56:33;;;;;;;;;4.00;2.00;;;;;22.85;38.56;102677.44;4920685;28;45382;-47
2022/07/08 04:58:59;;;;;;;;;2.75;2.75;;;;;22.84;38.74;102678.34;4920952;28;45506;-46
2022/07/08 05:01:24;;;;;;;;;2.00;2.00;;;;;22.84;38.38;102690.69;4920737;28;46199;-45
2022/07/08 05:03:50;;;;;;;;;5.00;3.00;;;;;22.85;38.83;102689.78;4920863;28;45378;-45
2022/07/08 05:06:15;;;;;;;;;3.25;1.75;;;;;22.84;38.59;102686.28;4920735;28;45308;-49
2022/07/08 05:08:41;;;;;;;;;3.00;3.00;;;;;22.83;38.72;102689.84;4920646;28;45587;-50
2022/07/08 05:11:06;;;;;;;;;2.00;2.00;;;;;22.85;38.55;102689.78;4920421;28;46120;-52
2022/07/08 05:13:31;;;;;;;;;3.00;3.00;;;;;22.85;38.50;102697.69;4887391;28;45878;-50
2022/07/08 05:15:58;;;;;;;;;3.50;2.00;;;;;22.84;38.59;102701.25;4920738;28;45286;-51
2022/07/08 05:18:23;;;;;;;;;2.00;2.00;;;;;22.85;38.89;102703.88;4921120;28;45386;-51
2022/07/08 05:20:49;;;;;;;;;1.50;1.50;;;;;22.86;38.74;102710.00;4919918;28;45973;-46
2022/07/08 05:23:14;;;;;;;;;4.50;3.00;;;;;22.86;38.67;102707.38;4920561;28;45206;-52
2022/07/08 05:25:39;;;;;;;;;4.00;2.25;;;;;22.85;38.61;102703.88;4920507;28;45760;-48
2022/07/08 05:28:05;;;;;;;;;3.00;3.00;;;;;22.85;39.04;102697.69;4920575;28;45497;-46
2022/07/08 05:30:30;;;;;;;;;4.25;3.00;;;;;22.85;38.74;102700.34;4920080;28;45281;-47
2022/07/08 05:32:56;;;;;;;;;4.00;2.00;;;;;22.85;38.50;102695.94;4920400;28;45278;-47
2022/07/08 05:35:21;;;;;;;;;3.75;2.00;;;;;22.85;38.82;102698.59;4920726;28;45355;-53
2022/07/08 05:37:46;;;;;;;;;4.00;3.50;;;;;22.85;38.67;102705.63;4919893;28;48323;-48
2022/07/08 05:40:12;;;;;;;;;2.00;2.00;;;;;22.84;38.87;102707.44;4919972;28;46030;-45
2022/07/08 05:42:38;;;;;;;;;4.25;4.25;;;;;22.83;38.63;102700.41;4919876;28;45483;-43
2022/07/08 05:45:05;;;;;;;;;8.50;3.00;;;;;22.84;38.62;102710.06;4920154;28;45379;-48
2022/07/08 05:47:30;;;;;;;;;3.00;3.00;;;;;22.85;38.55;102705.63;4919979;28;45351;-46
2022/07/08 05:49:56;;;;;;;;;7.25;4.50;;;;;22.85;38.76;102703.00;4919423;28;57803;-46
2022/07/08 05:52:21;;;;;;;;;4.25;4.00;;;;;22.86;38.54;102707.38;4920293;28;45271;-47
2022/07/08 05:54:47;;;;;;;;;4.50;3.25;;;;;22.85;38.67;102701.22;4919848;28;45346;-47
2022/07/08 05:57:13;;;;;;;;;4.00;4.00;;;;;22.84;38.76;102694.22;4920165;28;45236;-46
2022/07/08 05:59:38;;;;;;;;;11.00;5.00;;;;;22.85;38.73;102695.94;4919543;28;45275;-49
2022/07/08 06:02:04;;;;;;;;;4.50;3.00;;;;;22.85;38.51;102703.88;4919734;28;45325;-47
2022/07/08 06:04:29;;;;;;;;;5.50;3.00;;;;;22.82;38.88;102698.69;4919637;28;45439;-48
2022/07/08 06:06:55;;;;;;;;;6.50;4.00;;;;;22.81;38.84;102702.25;4920217;28;45575;-47
2022/07/08 06:09:20;;;;;;;;;3.00;3.00;;;;;22.79;38.73;102704.06;4902627;28;48033;-48
2022/07/08 06:11:46;;;;;;;;;3.00;3.00;;;;;22.79;38.92;102706.72;4919527;28;45341;-46
2022/07/08 06:14:11;;;;;;;;;4.75;3.00;;;;;22.79;38.45;102704.06;4919851;28;45387;-45
2022/07/08 06:16:36;;;;;;;;;3.00;3.00;;;;;22.78;38.71;102707.63;4919619;28;45221;-44
2022/07/08 06:19:02;;;;;;;;;5.00;3.00;;;;;22.80;38.83;102712.88;4919457;28;47191;-46
2022/07/08 06:21:27;;;;;;;;;3.75;3.00;;;;;22.80;38.53;102716.38;4919271;28;45484;-45
2022/07/08 06:23:53;;;;;;;;;3.25;2.25;;;;;22.80;38.53;102713.72;4919650;28;45378;-45
2022/07/08 06:26:18;;;;;;;;;2.50;2.50;;;;;22.81;38.82;102706.69;4919789;28;45729;-47
2022/07/08 06:28:44;;;;;;;;;5.25;3.00;;;;;22.79;38.68;102703.22;4918896;28;46265;-45
2022/07/08 06:31:09;;;;;;;;;3.75;2.50;;;;;22.81;38.73;102711.97;4919416;28;45432;-46
2022/07/08 06:33:35;;;;;;;;;2.50;2.25;;;;;22.81;38.62;102719.91;4918508;28;45451;-50
2022/07/08 06:36:00;;;;;;;;;3.00;3.00;;;;;22.81;38.73;102718.09;4919392;28;45517;-52
2022/07/08 06:38:25;;;;;;;;;3.75;3.75;;;;;22.82;38.69;102719.84;4918851;28;45585;-49
2022/07/08 06:40:51;;;;;;;;;4.00;2.00;;;;;22.82;38.79;102722.47;4919452;28;45798;-46
2022/07/08 06:43:17;;;;;;;;;2.50;2.50;;;;;22.83;38.49;102726.84;4918794;28;53943;-47
2022/07/08 06:45:43;;;;;;;;;2.50;2.00;;;;;22.85;38.30;102726.78;4919086;28;45526;-52
2022/07/08 06:48:09;;;;;;;;;6.50;2.50;;;;;22.84;38.56;102728.59;4918956;28;46227;-49
2022/07/08 06:50:34;;;;;;;;;3.25;2.25;;;;;22.85;38.55;102719.75;4918816;28;45852;-47
2022/07/08 06:52:59;;;;;;;;;4.75;4.75;;;;;22.87;38.81;102724.09;4919249;28;45304;-45
2022/07/08 06:55:24;;;;;;;;;3.00;2.00;;;;;22.88;38.46;102720.53;4917903;28;45772;-46
2022/07/08 06:57:50;;;;;;;;;6.00;3.00;;;;;22.87;38.69;102717.03;4919233;28;47095;-47
2022/07/08 07:00:16;;;;;;;;;2.75;2.75;;;;;22.88;38.41;102717.88;4918688;28;48206;-45
2022/07/08 07:02:41;;;;;;;;;5.00;4.00;;;;;22.87;38.77;102730.25;4918767;28;45182;-49
2022/07/08 07:05:08;;;;;;;;;4.75;3.00;;;;;22.89;38.23;102730.19;4919136;28;45594;-48
2022/07/08 07:07:33;;;;;;;;;4.00;3.00;;;;;22.89;38.46;102736.34;4918428;28;46025;-50
2022/07/08 07:09:59;;;;;;;;;4.00;3.00;;;;;22.89;38.42;102731.06;4918778;28;45399;-50
2022/07/08 07:12:24;;;;;;;;;4.00;4.00;;;;;22.91;38.52;102723.06;4918723;28;48447;-45
2022/07/08 07:14:51;;;;;;;;;4.00;4.00;;;;;22.91;38.20;102720.41;4919282;28;45331;-47
2022/07/08 07:17:18;;;;;;;;;5.00;4.00;;;;;22.92;38.42;102730.09;4918646;28;46176;-47
2022/07/08 07:19:44;;;;;;;;;4.00;2.25;;;;;22.93;38.26;102729.16;4917547;28;45779;-52
2022/07/08 07:22:09;;;;;;;;;6.00;5.00;;;;;22.94;38.46;102729.09;4918736;28;45939;-51
2022/07/08 07:24:35;;;;;;;;;5.00;5.00;;;;;22.95;38.56;102727.34;4918694;28;45450;-46
2022/07/08 07:27:00;;;;;;;;;5.25;4.00;;;;;22.97;38.36;102736.09;4918549;28;46093;-44
2022/07/08 07:29:25;;;;;;;;;4.00;4.00;;;;;22.97;38.39;102734.28;4917592;28;57285;-49
2022/07/08 07:31:51;;;;;;;;;7.00;5.00;;;;;22.97;38.26;102731.63;4918630;28;53745;-46
2022/07/08 07:34:16;;;;;;;;;4.50;4.50;;;;;22.98;38.00;102730.72;4918486;28;45530;-47
2022/07/08 07:36:41;;;;;;;;;7.50;5.00;;;;;22.99;38.62;102734.22;4918002;28;45934;-46
2022/07/08 07:39:09;;;;;;;;;5.00;4.00;;;;;22.99;38.50;102729.81;4918370;28;45246;-45
2022/07/08 07:41:35;;;;;;;;;6.00;5.75;;;;;22.99;38.81;102732.47;4918284;28;45372;-45
2022/07/08 07:44:00;;;;;;;;;5.00;5.00;;;;;23.01;38.30;102730.63;4918639;28;45339;-48
2022/07/08 07:46:25;;;;;;;;;4.50;4.50;;;;;23.02;38.22;102736.75;4918084;28;45433;-46
2022/07/08 07:48:51;;;;;;;;;3.00;3.00;;;;;23.03;38.27;102738.50;4918636;28;45288;-47
2022/07/08 07:51:16;;;;;;;;;5.50;5.00;;;;;23.04;38.56;102745.50;4918137;28;45333;-46
2022/07/08 07:53:41;;;;;;;;;6.00;6.00;;;;;23.05;38.52;102739.31;4918247;28;45311;-46
2022/07/08 07:56:07;;;;;;;;;7.25;7.00;;;;;23.05;38.17;102738.44;4917346;28;45403;-47
2022/07/08 07:58:32;;;;;;;;;7.50;7.00;;;;;23.06;38.51;102738.38;4917997;28;45275;-47
2022/07/08 08:00:57;;;;;;;;;7.00;4.75;;;;;23.07;38.19;102729.53;4918316;28;45250;-45
2022/07/08 08:03:23;;;;;;;;;7.00;4.75;;;;;23.07;38.46;102724.25;4918580;28;45251;-50
2022/07/08 08:05:48;;;;;;;;;8.00;5.25;;;;;23.07;38.15;102729.53;4884499;28;55851;-50
2022/07/08 08:08:13;;;;;;;;;6.00;5.25;;;;;23.07;38.39;102724.25;4918050;28;45290;-47
2022/07/08 08:10:39;;;;;;;;;5.00;5.00;;;;;23.07;38.27;102724.25;4917947;28;45241;-48
2022/07/08 08:13:04;;;;;;;;;10.00;6.00;;;;;23.07;38.34;102726.91;4918385;28;45463;-49
2022/07/08 08:15:30;;;;;;;;;7.50;7.50;;;;;23.08;37.99;102735.69;4917772;28;45735;-47
2022/07/08 08:17:57;;;;;;;;;10.25;6.00;;;;;23.08;38.28;102736.56;4918059;28;45337;-45
2022/07/08 08:20:27;;;;;;;;;7.00;7.00;;;;;23.09;38.11;102729.47;4918273;28;45438;-48
2022/07/08 08:22:52;;;;;;;;;8.00;6.00;;;;;23.10;38.07;102725.91;4918530;28;45252;-46
2022/07/08 08:25:21;;;;;;;;;6.75;6.75;;;;;23.10;38.39;102732.06;4917797;28;45261;-48
2022/07/08 08:27:47;;;;;;;;;6.00;6.00;;;;;23.12;38.36;102729.38;4917462;28;45660;-46
2022/07/08 08:30:15;;;;;;;;;7.25;6.25;;;;;23.13;38.16;102724.00;4917970;28;45341;-46
2022/07/08 08:32:40;;;;;;;;;7.00;7.00;;;;;23.15;38.36;102724.81;4917904;28;45268;-47
2022/07/08 08:35:06;;;;;;;;;8.75;7.25;;;;;23.17;38.07;102725.63;4917422;28;49835;-45
2022/07/08 08:37:31;;;;;;;;;8.50;7.00;;;;;23.17;38.40;102715.06;4917504;28;45347;-48
2022/07/08 08:40:05;;;;;;;;;9.75;6.00;;;;;23.16;38.30;102718.63;4917784;28;45317;-52
2022/07/08 08:42:31;;;;;;;;;7.25;5.00;;;;;23.15;37.76;102708.09;4917656;28;45408;-47
2022/07/08 08:44:58;;;;;;;;;6.00;5.00;;;;;23.14;37.92;102709.03;4917686;28;47090;-46
2022/07/08 08:47:28;;;;;;;;;6.25;6.25;;;;;23.13;37.96;102713.44;4917876;28;45824;-48
2022/07/08 08:49:56;;;;;;;;;9.00;6.00;;;;;23.11;37.97;102706.47;4916397;28;45346;-47
2022/07/08 08:52:23;;;;;;;;;6.50;6.50;;;;;23.09;37.79;102703.91;4918151;28;45339;-50
2022/07/08 08:54:49;;;;;;;;;9.00;6.00;;;;;23.10;37.62;102702.97;4917261;28;46408;-49
2022/07/08 08:57:17;;;;;;;;;8.00;5.75;;;;;23.10;37.97;102708.25;4920638;28;45352;-50
2022/07/08 08:59:45;;;;;;;;;6.50;5.75;;;;;23.09;38.12;102705.66;4920730;28;45454;-46
2022/07/08 09:02:11;;;;;;;;;6.50;6.00;;;;;23.08;37.77;102704.81;4920807;28;45613;-44
2022/07/08 09:04:37;;;;;;;;;7.00;7.00;;;;;23.07;38.20;102700.44;4919751;28;45398;-44
2022/07/08 09:07:03;;;;;;;;;6.75;5.75;;;;;23.07;37.73;102697.81;4920727;28;45283;-47
2022/07/08 09:09:28;;;;;;;;;7.00;4.75;;;;;23.08;38.22;102688.94;4920485;28;45257;-46
2022/07/08 09:11:53;;;;;;;;;7.25;6.25;;;;;23.09;37.68;102687.16;4921184;28;45514;-47
2022/07/08 09:14:21;;;;;;;;;8.75;6.00;;;;;23.09;37.72;102690.69;4920517;28;45258;-47
2022/07/08 09:17:07;;;;;;;;;6.00;5.75;;;;;23.07;37.77;102684.59;4903134;28;45374;-46
2022/07/08 09:19:32;;;;;;;;;8.00;8.00;;;;;23.08;37.67;102677.50;4920352;28;45315;-48
2022/07/08 09:21:58;;;;;;;;;7.75;5.25;;;;;23.08;37.91;102688.06;4920639;28;45346;-44
2022/07/08 09:24:23;;;;;;;;;6.75;5.75;;;;;23.08;37.91;102681.03;4920623;28;45407;-48
2022/07/08 09:26:48;;;;;;;;;6.50;6.50;;;;;23.09;38.05;102674.81;4920152;28;45450;-46
2022/07/08 09:29:14;;;;;;;;;9.50;6.25;;;;;23.10;37.75;102681.81;4920383;28;45416;-47
2022/07/08 09:31:39;;;;;;;;;8.50;6.00;;;;;23.10;37.91;102683.59;4920446;28;45306;-56
2022/07/08 09:34:11;;;;;;;;;7.50;7.00;;;;;23.10;37.79;102671.22;4920225;28;45478;-52
2022/07/08 09:36:48;;;;;;;;;7.00;6.25;;;;;23.11;38.08;102674.75;4919928;28;45242;-49
2022/07/08 09:39:31;;;;;;;;;7.50;6.00;;;;;23.11;37.55;102667.66;4920214;28;45373;-52
2022/07/08 09:41:56;;;;;;;;;5.75;4.75;;;;;23.12;37.51;102666.75;4920437;28;45260;-52
2022/07/08 09:44:25;;;;;;;;;7.50;6.25;;;;;23.13;37.57;102670.25;4920441;28;45969;-47
2022/07/08 09:46:50;;;;;;;;;6.25;6.25;;;;;23.13;37.68;102671.13;4920499;28;45351;-48
2022/07/08 09:49:33;;;;;;;;;7.75;6.25;;;;;23.13;37.27;102676.41;4920287;28;45360;-46
2022/07/08 09:51:59;;;;;;;;;6.75;6.25;;;;;23.14;37.48;102670.19;4920234;28;45455;-46
2022/07/08 09:54:26;;;;;;;;;7.25;6.00;;;;;23.15;37.33;102669.28;4919988;28;46371;-45
2022/07/08 09:57:01;;;;;;;;;7.50;6.00;;;;;23.15;37.18;102666.63;4920223;28;45352;-46
2022/07/08 09:59:27;;;;;;;;;5.75;5.75;;;;;23.15;37.19;102669.28;4919833;28;45352;-45
2022/07/08 10:01:53;;;;;;;;;4.75;4.75;;;;;23.15;37.19;102664.00;4920496;28;45310;-50
2022/07/08 10:04:19;;;;;;;;;5.50;5.50;;;;;23.15;37.44;102674.56;4919782;28;46065;-49
2022/07/08 10:06:45;;;;;;;;;5.50;5.25;;;;;23.17;37.23;102675.38;4918781;28;45349;-48
2022/07/08 10:09:10;;;;;;;;;7.75;6.00;;;;;23.18;36.99;102670.94;4919018;28;45385;-46
2022/07/08 10:11:37;;;;;;;;;6.25;4.00;;;;;23.19;37.27;102666.53;4919767;28;45296;-46
2022/07/08 10:14:04;;;;;;;;;6.50;6.25;;;;;23.19;37.32;102663.88;4919729;28;45330;-47
2022/07/08 10:16:30;;;;;;;;;7.25;6.75;;;;;23.22;36.83;102671.72;4919325;28;45463;-50
2022/07/08 10:18:57;;;;;;;;;6.75;6.75;;;;;23.20;36.83;102661.19;4919789;28;45320;-46
2022/07/08 10:21:25;;;;;;;;;7.25;6.25;;;;;23.22;36.96;102669.94;4920031;28;45431;-45
2022/07/08 10:23:52;;;;;;;;;5.75;5.00;;;;;23.22;36.54;102663.78;4919844;28;46466;-46
2022/07/08 10:26:23;;;;;;;;;5.50;5.25;;;;;23.23;36.37;102670.78;4902422;28;45410;-49
2022/07/08 10:29:00;;;;;;;;;9.00;7.25;;;;;23.23;36.69;102663.75;4919353;28;45400;-52
2022/07/08 10:31:29;;;;;;;;;6.00;6.00;;;;;23.23;36.35;102660.22;4919531;28;45284;-52
2022/07/08 10:34:00;;;;;;;;;5.00;3.50;;;;;23.24;36.40;102657.53;4919487;28;46075;-49
2022/07/08 10:36:25;;;;;;;;;7.00;7.00;;;;;23.24;36.47;102661.94;4919102;28;45280;-48
2022/07/08 10:38:51;;;;;;;;;5.75;5.00;;;;;23.27;36.70;102667.13;4919813;28;45369;-50
2022/07/08 10:41:21;;;;;;;;;9.25;5.25;;;;;23.27;36.29;102659.19;4919560;28;45222;-48
2022/07/08 10:44:02;;;;;;;;;6.00;5.00;;;;;23.28;36.12;102659.13;4918966;28;47111;-45
2022/07/08 10:46:29;;;;;;;;;5.50;5.50;;;;;23.28;36.20;102650.34;4918971;28;45511;-49
2022/07/08 10:48:55;;;;;;;;;7.00;5.25;;;;;23.29;36.10;102657.34;4919649;28;45459;-49
2022/07/08 10:51:24;;;;;;;;;6.25;5.00;;;;;23.30;35.93;102659.06;4919750;28;45569;-49
2022/07/08 10:54:01;;;;;;;;;5.25;5.00;;;;;23.29;35.77;102660.84;4918851;28;46816;-49
2022/07/08 10:56:54;;;;;;;;;8.25;5.25;;;;;23.31;35.85;102660.81;4918868;28;45339;-46
2022/07/08 10:59:22;;;;;;;;;3.50;3.00;;;;;23.31;35.85;102663.44;4919341;28;45363;-49
2022/07/08 11:01:59;;;;;;;;;7.00;4.00;;;;;23.33;35.77;102660.72;4919073;28;45395;-44
2022/07/08 11:04:33;;;;;;;;;6.00;6.00;;;;;23.32;36.02;102659.84;4919381;28;46636;-49
2022/07/08 11:07:26;;;;;;;;;6.00;5.75;;;;;23.33;35.57;102655.44;4919016;28;45907;-48
2022/07/08 11:10:13;;;;;;;;;6.00;6.00;;;;;23.33;35.89;102651.00;4919255;28;45348;-50
2022/07/08 11:12:41;;;;;;;;;9.00;7.00;;;;;23.33;35.69;102645.72;4918836;28;45459;-48
2022/07/08 11:15:14;;;;;;;;;7.00;5.00;;;;;23.34;35.70;102647.44;4918776;28;46594;-47
2022/07/08 11:17:41;;;;;;;;;6.00;6.00;;;;;23.35;35.89;102646.50;4918554;28;45381;-50
2022/07/08 11:20:07;;;;;;;;;8.25;6.50;;;;;23.36;35.93;102645.59;4917768;28;45385;-49
2022/07/08 11:22:34;;;;;;;;;8.00;4.75;;;;;23.37;35.51;102646.47;4918741;28;45603;-48
2022/07/08 11:25:00;;;;;;;;;5.00;4.25;;;;;23.37;35.89;102647.31;4918486;28;47086;-46
2022/07/08 11:27:28;;;;;;;;;4.50;4.50;;;;;23.38;35.69;102638.47;4918263;28;45269;-49